Time;durP1;ratioP1;P1;durP2;ratioP2;P2;SDS_P1;SDS_P2;PMS_P1;PMS_P2;Temp;Humidity;BMP_temperature;BMP_pressure;BME280_temperature;BME280_humidity;BME280_pressure;Samples;Min_cycle;Max_cycle;Signal;HPM_P1;HPM_P2
2022/06/06 00:01:48;;;;;;;;;10.50;10.50;;;;;18.42;85.74;101414.72;5092140;27;45323;-67
2022/06/06 00:04:15;;;;;;;;;14.75;12.25;;;;;18.43;85.15;101417.31;5059619;28;45506;-67
2022/06/06 00:06:41;;;;;;;;;11.75;10.75;;;;;18.44;85.37;101419.00;5048365;28;45859;-67
2022/06/06 00:09:07;;;;;;;;;13.00;12.50;;;;;18.45;85.79;101419.84;5059506;28;46102;-67
2022/06/06 00:11:34;;;;;;;;;14.50;12.75;;;;;18.44;85.30;101420.78;5059309;28;45398;-65
2022/06/06 00:14:00;;;;;;;;;14.75;12.00;;;;;18.40;85.42;101422.69;5058985;28;45784;-66
2022/06/06 00:16:25;;;;;;;;;12.75;11.25;;;;;18.37;84.93;101417.59;5056179;28;45573;-67
2022/06/06 00:18:51;;;;;;;;;16.00;14.00;;;;;18.33;84.86;101416.03;5058768;28;46195;-67
2022/06/06 00:21:16;;;;;;;;;17.25;12.00;;;;;18.31;85.74;101417.91;5058813;28;45253;-67
2022/06/06 00:23:42;;;;;;;;;12.25;12.25;;;;;18.29;85.94;101425.00;5058896;28;45428;-67
2022/06/06 00:26:11;;;;;;;;;14.75;12.50;;;;;18.27;85.68;101420.75;5057377;28;45356;-67
2022/06/06 00:28:37;;;;;;;;;13.25;11.75;;;;;18.24;85.88;101414.72;5058950;28;46544;-67
2022/06/06 00:36:34;;;;;;;;;17.75;15.00;;;;;18.15;86.06;101406.41;5058641;28;45411;-67
2022/06/06 00:39:01;;;;;;;;;20.50;13.75;;;;;18.13;86.07;101397.75;5058317;28;46354;-68
2022/06/06 00:41:26;;;;;;;;;12.75;12.25;;;;;18.09;86.22;101401.44;5057021;28;45425;-69
2022/06/06 00:44:02;;;;;;;;;19.00;16.00;;;;;18.11;86.40;101402.22;5053995;28;45613;-69
2022/06/06 00:46:28;;;;;;;;;18.25;15.50;;;;;18.10;86.35;101395.25;5058861;28;45402;-70
2022/06/06 00:48:54;;;;;;;;;15.00;14.25;;;;;18.08;86.22;101394.47;5058908;28;46186;-67
2022/06/06 00:51:19;;;;;;;;;15.25;14.00;;;;;18.09;86.68;101388.28;5058673;28;45399;-67
2022/06/06 00:53:52;;;;;;;;;19.50;17.25;;;;;18.09;85.94;101383.88;5058638;28;45331;-67
2022/06/06 00:56:52;;;;;;;;;15.25;12.50;;;;;18.11;86.29;101383.81;5072191;28;45545;-66
2022/06/06 00:59:23;;;;;;;;;18.25;16.50;;;;;18.07;86.07;101385.75;5044246;28;45813;-69
2022/06/06 01:01:49;;;;;;;;;18.00;14.75;;;;;18.08;86.22;101382.19;5055407;28;45870;-67
2022/06/06 01:04:18;;;;;;;;;20.25;15.50;;;;;18.08;86.21;101374.28;5060158;28;45492;-67
2022/06/06 01:06:47;;;;;;;;;22.75;19.00;;;;;18.10;86.31;101388.22;5059085;28;45312;-67
2022/06/06 01:09:15;;;;;;;;;23.00;17.50;;;;;18.11;85.35;101386.44;5056486;28;45445;-65
2022/06/06 01:11:45;;;;;;;;;19.25;18.00;;;;;18.09;85.89;101388.28;5060846;28;45352;-65
2022/06/06 01:14:16;;;;;;;;;24.50;19.00;;;;;18.08;86.07;101383.97;5062417;28;45443;-66
2022/06/06 01:17:00;;;;;;;;;20.50;18.75;;;;;18.09;85.98;101375.16;5062060;28;45213;-66
2022/06/06 01:20:06;;;;;;;;;24.50;20.25;;;;;18.10;85.47;101371.59;5062093;28;46256;-64
2022/06/06 01:22:46;;;;;;;;;23.75;20.00;;;;;18.11;85.59;101373.28;5053968;28;45464;-65
2022/06/06 01:25:47;;;;;;;;;21.00;19.75;;;;;18.11;85.27;101374.16;5062473;28;45481;-63
2022/06/06 01:28:42;;;;;;;;;27.50;22.25;;;;;18.12;85.05;101375.84;5057141;28;45550;-64
2022/06/06 01:31:14;;;;;;;;;22.00;17.00;;;;;18.09;85.13;101375.16;5051177;28;46387;-64
2022/06/06 01:33:48;;;;;;;;;20.75;16.75;;;;;18.09;85.22;101369.88;5061946;28;45346;-65
2022/06/06 01:36:13;;;;;;;;;20.50;18.25;;;;;18.11;85.28;101375.91;5059671;28;45502;-65
2022/06/06 01:38:40;;;;;;;;;21.75;18.75;;;;;18.12;84.97;101377.63;5060390;27;45504;-65
2022/06/06 01:41:11;;;;;;;;;15.25;14.75;;;;;18.09;84.96;101365.47;5061665;28;45585;-66
2022/06/06 01:43:45;;;;;;;;;19.50;15.75;;;;;18.09;84.90;101377.78;5060014;28;45727;-66
2022/06/06 01:46:18;;;;;;;;;14.25;12.75;;;;;18.06;84.68;101373.53;5061842;28;45382;-66
2022/06/06 01:48:45;;;;;;;;;17.00;15.25;;;;;18.06;84.43;101377.94;5061630;28;45213;-65
2022/06/06 01:51:17;;;;;;;;;14.25;12.00;;;;;18.03;84.28;101376.31;5061392;28;45493;-65
2022/06/06 01:53:42;;;;;;;;;13.50;10.75;;;;;17.99;84.03;101372.09;5061541;28;45234;-66
2022/06/06 01:56:11;;;;;;;;;17.00;15.25;;;;;18.00;84.95;101372.94;5061989;28;45276;-66
2022/06/06 01:58:37;;;;;;;;;15.50;14.75;;;;;17.99;85.67;101376.50;5061386;28;45353;-66
2022/06/06 02:01:03;;;;;;;;;18.50;13.75;;;;;17.92;86.03;101375.94;5061427;28;45427;-65
2022/06/06 02:03:30;;;;;;;;;16.50;15.00;;;;;17.89;86.33;101376.09;5061375;28;45315;-65
2022/06/06 02:05:56;;;;;;;;;16.75;13.25;;;;;17.85;86.44;101372.78;5050702;28;45454;-65
2022/06/06 02:08:21;;;;;;;;;14.00;14.00;;;;;17.78;86.64;101366.09;5061185;28;45300;-64
2022/06/06 02:10:47;;;;;;;;;13.50;12.00;;;;;17.72;86.97;101366.38;5061411;28;45278;-64
2022/06/06 02:13:13;;;;;;;;;14.50;13.25;;;;;17.62;87.06;101355.44;5060942;28;45319;-64
2022/06/06 02:15:39;;;;;;;;;16.50;12.75;;;;;17.60;87.44;101357.25;5085775;27;45277;-65
2022/06/06 02:18:05;;;;;;;;;12.25;11.25;;;;;17.56;87.31;101358.31;5056821;28;45206;-64
2022/06/06 02:20:32;;;;;;;;;11.75;8.50;;;;;17.51;86.65;101362.09;5053142;28;45489;-64
2022/06/06 02:22:58;;;;;;;;;10.50;9.25;;;;;17.48;85.99;101354.34;5060326;28;45864;-64
2022/06/06 02:25:24;;;;;;;;;14.50;13.00;;;;;17.43;86.35;101358.97;5051878;28;45279;-64
2022/06/06 02:27:50;;;;;;;;;13.00;9.00;;;;;17.41;86.28;101359.03;5060558;28;45510;-64
2022/06/06 02:30:20;;;;;;;;;11.25;8.00;;;;;17.35;86.17;101351.44;5051590;28;46193;-65
2022/06/06 02:32:46;;;;;;;;;11.25;9.50;;;;;17.29;85.93;101357.84;5060634;28;45381;-64
2022/06/06 02:35:14;;;;;;;;;8.00;7.25;;;;;17.30;86.01;101364.78;5060827;28;45310;-64
2022/06/06 02:37:40;;;;;;;;;12.00;11.00;;;;;17.27;85.75;101362.31;5059589;28;45884;-64
2022/06/06 02:40:09;;;;;;;;;8.50;8.50;;;;;17.19;85.78;101359.16;5060723;28;45600;-64
2022/06/06 02:42:35;;;;;;;;;10.00;9.00;;;;;17.18;86.03;101356.59;5059398;28;45575;-64
2022/06/06 02:45:02;;;;;;;;;10.50;9.25;;;;;17.16;85.85;101361.06;5058703;28;45352;-64
2022/06/06 02:47:28;;;;;;;;;8.75;7.00;;;;;17.16;85.74;101361.91;5060003;28;45396;-65
2022/06/06 02:49:54;;;;;;;;;10.00;8.00;;;;;17.15;85.36;101367.25;5060623;28;46254;-64
2022/06/06 02:52:20;;;;;;;;;10.25;8.75;;;;;17.13;85.85;101367.31;5060136;28;45688;-64
2022/06/06 02:54:46;;;;;;;;;9.50;8.00;;;;;17.09;85.40;101367.53;5060724;28;45536;-64
2022/06/06 02:57:11;;;;;;;;;7.50;6.50;;;;;17.08;84.36;101365.81;5060416;28;45496;-64
2022/06/06 02:59:38;;;;;;;;;11.75;7.75;;;;;16.99;84.62;101353.94;5060434;28;45418;-64
2022/06/06 03:02:03;;;;;;;;;11.00;10.75;;;;;16.96;84.30;101356.69;5060337;28;45708;-64
2022/06/06 03:04:30;;;;;;;;;8.50;8.50;;;;;16.91;84.10;101356.06;5060598;28;45267;-63
2022/06/06 03:07:20;;;;;;;;;12.25;10.50;;;;;16.85;82.94;101359.81;5058424;28;45687;-63
2022/06/06 03:10:17;;;;;;;;;16.25;11.75;;;;;16.74;83.94;101359.41;5059980;28;46434;-64
2022/06/06 03:12:56;;;;;;;;;12.50;12.00;;;;;16.67;83.85;101369.34;5073537;27;45695;-64
2022/06/06 03:20:46;;;;;;;;;15.25;11.00;;;;;16.62;84.12;101363.41;5059161;28;45359;-63
2022/06/06 03:21:58;;;;;;;;;11.50;11.00;;;;;16.59;83.87;101360.88;5059710;28;45720;-65
2022/06/06 03:24:53;;;;;;;;;10.00;9.75;;;;;16.61;83.74;101366.91;5047835;28;45267;-66
2022/06/06 03:27:25;;;;;;;;;12.25;11.00;;;;;16.61;83.85;101366.06;5058584;28;45331;-66
2022/06/06 03:30:05;;;;;;;;;14.50;10.25;;;;;16.61;83.88;101364.28;5059989;28;45411;-66
2022/06/06 03:32:46;;;;;;;;;10.75;9.00;;;;;16.62;83.51;101367.81;5059432;28;45393;-66
2022/06/06 03:35:32;;;;;;;;;10.75;10.00;;;;;16.65;83.27;101380.78;5059360;28;45234;-66
2022/06/06 03:38:01;;;;;;;;;13.75;12.00;;;;;16.62;83.20;101373.06;5053656;28;45347;-66
2022/06/06 03:40:35;;;;;;;;;16.50;10.75;;;;;16.61;83.22;101371.31;5055655;28;45441;-66
2022/06/06 03:43:07;;;;;;;;;17.75;12.50;;;;;16.63;83.33;101377.38;5059525;28;46534;-66
2022/06/06 03:46:01;;;;;;;;;9.50;9.00;;;;;16.64;82.18;101381.72;5058227;28;45226;-66
2022/06/06 03:48:38;;;;;;;;;11.00;9.50;;;;;16.62;82.52;101376.53;5059840;28;45375;-66
2022/06/06 03:51:11;;;;;;;;;10.50;10.25;;;;;16.63;81.88;101378.22;5053720;28;45440;-64
2022/06/06 03:53:50;;;;;;;;;7.00;7.00;;;;;16.59;82.33;101371.38;5058894;28;45354;-65
2022/06/06 03:56:42;;;;;;;;;8.50;6.75;;;;;16.64;82.31;101377.31;5085847;27;45494;-64
2022/06/06 03:59:08;;;;;;;;;10.00;8.00;;;;;16.69;82.04;101383.25;5045626;28;45542;-64
2022/06/06 04:01:39;;;;;;;;;9.00;7.75;;;;;16.77;81.98;101385.53;5058308;28;46211;-64
2022/06/06 04:04:05;;;;;;;;;7.50;5.75;;;;;16.79;81.65;101382.84;5059761;28;46073;-64
2022/06/06 04:06:32;;;;;;;;;4.00;4.00;;;;;16.81;81.44;101381.84;5059029;28;45469;-64
2022/06/06 04:08:57;;;;;;;;;7.25;7.00;;;;;16.82;81.53;101385.31;5059766;28;45296;-64
2022/06/06 04:11:29;;;;;;;;;6.50;5.25;;;;;16.83;81.13;101394.94;5059314;28;45548;-64
2022/06/06 04:14:18;;;;;;;;;9.50;6.50;;;;;16.84;81.12;101396.63;5059319;28;46364;-65
2022/06/06 04:16:54;;;;;;;;;7.50;5.50;;;;;16.87;81.04;101399.13;5059510;28;45527;-65
2022/06/06 04:19:42;;;;;;;;;3.25;3.25;;;;;16.90;80.89;101396.38;5058435;28;45223;-65
2022/06/06 04:22:34;;;;;;;;;5.75;4.50;;;;;16.94;80.58;101395.31;5067163;28;45481;-66
2022/06/06 04:25:05;;;;;;;;;4.00;4.00;;;;;16.98;80.62;101399.50;5057808;28;45561;-66
2022/06/06 04:27:45;;;;;;;;;7.00;4.00;;;;;17.01;79.87;101399.34;5058886;28;45617;-65
2022/06/06 04:30:45;;;;;;;;;6.00;5.50;;;;;17.05;79.67;101400.09;5052294;28;45380;-65
2022/06/06 04:33:19;;;;;;;;;4.50;4.00;;;;;17.09;79.89;101409.53;5059389;28;45225;-65
2022/06/06 04:36:09;;;;;;;;;4.25;3.75;;;;;17.11;78.62;101405.94;5058462;28;45518;-65
2022/06/06 04:38:51;;;;;;;;;4.00;3.25;;;;;17.11;79.43;101395.44;5061741;28;45833;-65
2022/06/06 04:41:25;;;;;;;;;3.25;3.25;;;;;17.15;78.77;101394.34;5063099;28;45294;-64
2022/06/06 04:44:06;;;;;;;;;4.50;3.00;;;;;17.19;78.85;101390.66;5062460;28;45219;-64
2022/06/06 04:46:47;;;;;;;;;4.00;4.00;;;;;17.21;78.94;101385.34;5062395;28;45569;-65
2022/06/06 04:49:13;;;;;;;;;6.25;5.00;;;;;17.26;78.63;101386.03;5062405;28;45425;-64
2022/06/06 04:51:42;;;;;;;;;4.50;4.25;;;;;17.29;78.61;101381.47;5062083;28;45281;-64
2022/06/06 04:54:13;;;;;;;;;3.00;3.00;;;;;17.31;77.94;101382.25;5062478;28;45350;-64
2022/06/06 04:56:39;;;;;;;;;4.00;3.00;;;;;17.31;78.13;101376.16;5062225;28;45445;-66
2022/06/06 04:59:09;;;;;;;;;4.50;4.50;;;;;17.34;77.72;101383.88;5062484;28;45252;-65
2022/06/06 05:01:36;;;;;;;;;5.25;4.00;;;;;17.37;77.38;101390.78;5060749;28;45464;-66
2022/06/06 05:04:01;;;;;;;;;3.75;3.00;;;;;17.34;77.20;101391.78;5061045;28;45469;-67
2022/06/06 05:06:48;;;;;;;;;4.75;3.25;;;;;17.35;76.42;101390.84;5055809;28;47999;-66
2022/06/06 05:09:38;;;;;;;;;4.00;4.00;;;;;17.24;77.27;101393.97;5062029;28;45204;-66
2022/06/06 05:12:15;;;;;;;;;6.75;5.75;;;;;17.21;77.83;101401.09;5051493;28;45304;-66
2022/06/06 05:14:56;;;;;;;;;6.00;6.00;;;;;17.19;78.31;101403.81;5058573;28;45489;-66
2022/06/06 05:17:55;;;;;;;;;6.00;6.00;;;;;17.18;76.70;101403.88;5057076;28;46651;-67
2022/06/06 05:20:20;;;;;;;;;4.25;4.25;;;;;17.12;77.86;101394.50;5052870;28;45316;-66
2022/06/06 05:23:04;;;;;;;;;2.50;2.50;;;;;17.10;77.70;101400.75;5061421;28;45220;-67
2022/06/06 05:26:09;;;;;;;;;3.75;3.75;;;;;17.07;77.71;101401.75;5062039;28;45576;-67
2022/06/06 05:28:34;;;;;;;;;3.00;3.00;;;;;17.06;77.45;101407.91;5087023;27;46246;-67
2022/06/06 05:31:24;;;;;;;;;2.00;2.00;;;;;17.06;77.47;101410.53;5061708;28;45470;-67
2022/06/06 05:33:58;;;;;;;;;2.75;2.75;;;;;17.12;77.44;101410.25;5062002;28;45359;-67
2022/06/06 05:36:57;;;;;;;;;4.25;2.00;;;;;17.19;77.21;101406.44;5061454;28;45248;-67
2022/06/06 05:39:45;;;;;;;;;3.50;3.50;;;;;17.23;76.05;101408.03;5061779;28;45401;-67
2022/06/06 05:42:38;;;;;;;;;3.00;3.00;;;;;17.26;76.98;101407.88;5060244;28;45430;-67
2022/06/06 05:45:22;;;;;;;;;3.25;2.75;;;;;17.29;76.96;101399.88;5055123;28;45483;-67
2022/06/06 05:48:10;;;;;;;;;2.50;1.75;;;;;17.29;76.15;101394.59;5061787;28;45350;-67
2022/06/06 05:51:04;;;;;;;;;1.00;1.00;;;;;17.32;75.98;101399.72;5060291;28;46829;-67
2022/06/06 05:54:12;;;;;;;;;3.25;2.00;;;;;17.30;76.13;101398.09;5061539;28;45496;-67
2022/06/06 05:57:13;;;;;;;;;1.00;1.00;;;;;17.42;74.95;101404.53;5052365;28;45610;-67
2022/06/06 05:59:54;;;;;;;;;1.00;1.00;;;;;17.46;74.94;101411.41;5054248;28;45753;-67
2022/06/06 06:02:48;;;;;;;;;3.00;3.00;;;;;17.43;74.19;101401.03;5061611;28;46707;-64
2022/06/06 06:05:32;;;;;;;;;2.50;2.00;;;;;17.47;75.15;101413.94;5055931;28;45628;-65
2022/06/06 06:08:07;;;;;;;;;2.00;2.00;;;;;17.54;75.05;101415.38;5059606;28;45461;-65
2022/06/06 06:10:48;;;;;;;;;3.00;2.25;;;;;17.60;73.37;101419.47;5061376;28;45225;-66
2022/06/06 06:13:32;;;;;;;;;1.50;1.00;;;;;17.62;73.65;101421.13;5060824;28;46407;-65
2022/06/06 06:16:01;;;;;;;;;1.75;1.75;;;;;17.65;72.35;101422.78;5049698;28;45760;-67
2022/06/06 06:18:34;;;;;;;;;4.00;2.00;;;;;17.68;73.59;101425.28;5069558;28;45245;-67
2022/06/06 06:21:07;;;;;;;;;6.00;4.00;;;;;17.72;73.95;101429.47;5060829;28;45358;-64
2022/06/06 06:23:37;;;;;;;;;5.00;5.00;;;;;17.75;73.26;101425.84;5060404;28;46767;-63
2022/06/06 06:26:05;;;;;;;;;2.75;2.75;;;;;17.76;73.95;101431.03;5061127;28;46954;-65
2022/06/06 06:28:36;;;;;;;;;2.00;2.00;;;;;17.79;74.30;101427.41;5061383;28;45369;-63
2022/06/06 06:31:20;;;;;;;;;1.00;0.00;;;;;17.89;73.98;101426.06;5060723;28;45501;-64
2022/06/06 06:34:18;;;;;;;;;2.00;2.00;;;;;17.90;73.59;101438.28;5061064;28;45459;-66
2022/06/06 06:36:58;;;;;;;;;2.00;2.00;;;;;17.98;73.71;101441.41;5060673;28;45433;-66
2022/06/06 06:39:32;;;;;;;;;0.00;0.00;;;;;17.99;73.14;101442.25;5061146;28;45436;-66
2022/06/06 06:42:00;;;;;;;;;3.50;1.00;;;;;18.05;73.17;101444.63;5060963;28;45379;-67
2022/06/06 06:44:31;;;;;;;;;2.50;2.50;;;;;18.10;72.77;101446.09;5060555;28;45959;-66
2022/06/06 06:46:58;;;;;;;;;1.00;1.00;;;;;18.14;72.50;101446.78;5055447;28;46215;-66
2022/06/06 06:49:43;;;;;;;;;2.50;2.00;;;;;18.21;72.12;101442.94;5060782;28;45330;-64
2022/06/06 06:52:31;;;;;;;;;3.00;3.00;;;;;18.24;72.27;101448.06;5060386;28;45364;-64
2022/06/06 06:54:59;;;;;;;;;1.00;1.00;;;;;18.27;72.92;101447.06;5060641;28;45319;-65
2022/06/06 06:57:59;;;;;;;;;3.75;2.50;;;;;18.37;72.88;101448.31;5050580;28;45413;-66
2022/06/06 07:00:38;;;;;;;;;5.50;2.00;;;;;18.46;72.34;101459.25;5060547;28;45364;-66
2022/06/06 07:09:32;;;;;;;;;3.00;3.00;;;;;18.68;70.89;101447.72;5054957;28;45304;-65
2022/06/06 07:12:12;;;;;;;;;5.25;4.00;;;;;18.73;71.19;101446.53;5048717;28;45338;-66
2022/06/06 07:14:46;;;;;;;;;3.00;3.00;;;;;18.84;69.28;101448.66;5060272;28;45268;-66
2022/06/06 07:17:13;;;;;;;;;3.00;2.00;;;;;18.80;70.25;101450.56;5058850;28;47439;-65
2022/06/06 07:19:48;;;;;;;;;7.25;3.75;;;;;18.78;70.12;101444.50;5060183;28;45414;-63
2022/06/06 07:22:16;;;;;;;;;3.00;2.00;;;;;18.95;70.11;101451.56;5053266;28;45316;-64
2022/06/06 07:24:43;;;;;;;;;3.00;3.00;;;;;19.12;70.52;101448.91;5057605;28;45534;-64
2022/06/06 07:27:10;;;;;;;;;3.00;3.00;;;;;19.26;69.55;101450.84;5092745;27;45454;-66
2022/06/06 07:29:36;;;;;;;;;2.50;2.25;;;;;19.41;70.42;101444.75;5059880;28;45875;-64
2022/06/06 07:32:31;;;;;;;;;4.50;3.00;;;;;19.51;68.96;101439.00;5059856;28;45382;-65
2022/06/06 07:35:14;;;;;;;;;1.75;1.75;;;;;19.50;67.93;101445.22;5051086;28;45399;-64
2022/06/06 07:37:53;;;;;;;;;2.00;2.00;;;;;19.50;68.15;101447.84;5060092;28;45464;-63
2022/06/06 07:40:36;;;;;;;;;6.75;4.00;;;;;19.53;64.97;101437.97;5059774;28;45599;-63
2022/06/06 07:43:35;;;;;;;;;2.00;2.00;;;;;19.60;64.71;101444.66;5052020;28;45394;-63
2022/06/06 07:46:56;;;;;;;;;2.00;2.00;;;;;19.60;63.99;101443.81;5049169;28;45190;-66
2022/06/06 07:49:33;;;;;;;;;3.00;2.50;;;;;19.73;66.68;101439.56;5024735;28;45554;-66
2022/06/06 07:52:26;;;;;;;;;2.00;2.00;;;;;20.00;66.20;101437.19;5070554;28;45589;-66
2022/06/06 07:55:18;;;;;;;;;2.00;2.00;;;;;20.21;64.80;101441.25;5058312;28;45442;-63
2022/06/06 07:58:14;;;;;;;;;2.75;2.75;;;;;20.50;65.78;101442.28;5043245;28;45538;-62
2022/06/06 08:00:40;;;;;;;;;5.25;2.00;;;;;20.72;65.05;101441.03;5046878;28;46574;-67
2022/06/06 08:03:33;;;;;;;;;2.50;1.00;;;;;20.68;64.41;101436.88;5059182;28;45689;-65
2022/06/06 08:06:25;;;;;;;;;3.00;2.50;;;;;20.51;63.00;101438.72;5058193;28;45225;-67
2022/06/06 08:08:56;;;;;;;;;1.50;1.50;;;;;20.35;63.17;101440.50;5058601;28;45446;-68
2022/06/06 08:11:30;;;;;;;;;1.00;1.00;;;;;20.47;64.02;101434.56;5065716;28;45489;-70
2022/06/06 08:13:56;;;;;;;;;1.00;1.00;;;;;20.75;63.96;101441.72;5061150;28;45568;-70
2022/06/06 08:16:31;;;;;;;;;6.00;2.50;;;;;20.85;63.11;101442.88;5059055;28;45327;-78
2022/06/06 08:19:28;;;;;;;;;2.00;1.00;;;;;20.68;61.13;101434.25;5059607;28;45346;-68
2022/06/06 08:21:54;;;;;;;;;1.00;1.00;;;;;20.67;62.87;101433.41;5049041;28;46369;-67
2022/06/06 08:24:30;;;;;;;;;2.25;2.25;;;;;20.89;62.32;101428.53;5064511;28;45386;-69
2022/06/06 08:26:59;;;;;;;;;1.75;1.25;;;;;21.06;62.43;101437.25;5068635;28;45558;-67
2022/06/06 08:29:25;;;;;;;;;2.00;2.00;;;;;21.09;59.19;101432.63;5066228;28;45210;-74
2022/06/06 08:31:51;;;;;;;;;0.25;0.25;;;;;21.00;59.68;101432.31;5058719;28;45535;-70
2022/06/06 08:34:16;;;;;;;;;3.75;2.00;;;;;21.01;58.72;101431.38;5056347;28;45368;-69
2022/06/06 08:37:00;;;;;;;;;2.00;2.00;;;;;21.02;57.43;101427.78;5086295;27;45510;-66
2022/06/06 08:40:04;;;;;;;;;1.00;1.00;;;;;20.95;57.73;101433.44;5057838;28;45744;-67
2022/06/06 08:42:33;;;;;;;;;0.75;0.75;;;;;21.08;58.68;101419.50;5057017;27;46659;-72
2022/06/06 08:45:32;;;;;;;;;0.25;0.25;;;;;21.13;56.42;101426.22;5057753;28;46238;-75
2022/06/06 08:48:02;;;;;;;;;3.00;1.75;;;;;21.08;57.07;101424.78;5050326;28;45299;-71
2022/06/06 08:51:02;;;;;;;;;0.50;0.50;;;;;21.12;56.65;101426.31;5058750;28;45477;-71
2022/06/06 08:53:36;;;;;;;;;3.00;2.00;;;;;21.32;56.95;101422.47;5058755;28;45489;-67
2022/06/06 08:56:39;;;;;;;;;1.75;1.75;;;;;21.36;52.84;101418.69;5057747;28;45527;-70
2022/06/06 08:59:46;;;;;;;;;1.00;1.00;;;;;21.38;53.63;101417.66;5049785;28;45372;-65
2022/06/06 09:02:33;;;;;;;;;0.75;0.75;;;;;21.29;55.70;101414.75;5058402;28;45479;-68
2022/06/06 09:05:08;;;;;;;;;1.00;0.75;;;;;21.29;56.17;101418.22;5054331;28;47253;-66
2022/06/06 09:07:36;;;;;;;;;0.75;0.75;;;;;21.32;54.84;101420.69;5058591;28;45229;-67
2022/06/06 09:10:22;;;;;;;;;1.00;1.00;;;;;21.29;55.25;101417.38;5052367;28;45466;-67
2022/06/06 09:13:10;;;;;;;;;1.00;1.00;;;;;21.33;55.45;101424.19;5091024;27;45487;-69
2022/06/06 09:15:50;;;;;;;;;1.50;1.50;;;;;21.33;54.80;101422.38;5058844;28;45542;-67
2022/06/06 09:19:07;;;;;;;;;1.50;1.50;;;;;21.17;53.28;101426.88;5058794;28;45725;-78
2022/06/06 09:21:59;;;;;;;;;1.25;1.25;;;;;21.02;53.71;101425.16;5041437;28;45773;-71
2022/06/06 09:24:51;;;;;;;;;0.75;0.75;;;;;21.10;53.84;101421.13;5058080;28;45501;-69
2022/06/06 09:27:29;;;;;;;;;1.25;1.25;;;;;21.23;51.17;101426.50;5061400;28;45457;-69
2022/06/06 09:30:19;;;;;;;;;3.00;2.00;;;;;21.24;52.44;101421.16;5056851;28;45382;-69
2022/06/06 09:32:53;;;;;;;;;1.00;1.00;;;;;21.22;52.38;101408.94;5053615;28;45396;-72
2022/06/06 09:35:39;;;;;;;;;1.50;1.50;;;;;21.09;50.63;101415.94;5050073;28;45476;-68
2022/06/06 09:38:04;;;;;;;;;6.00;6.00;;;;;21.19;52.64;101417.03;5060887;28;45482;-66
2022/06/06 09:40:51;;;;;;;;;1.00;1.00;;;;;21.42;52.16;101416.50;5061787;28;45466;-67
2022/06/06 09:43:39;;;;;;;;;0.50;0.50;;;;;21.72;52.48;101408.47;5055797;28;45438;-68
2022/06/06 09:46:26;;;;;;;;;2.00;2.00;;;;;22.08;46.38;101410.59;5044348;28;45593;-66
2022/06/06 09:48:52;;;;;;;;;1.00;1.00;;;;;22.24;49.24;101402.50;5059917;28;47591;-70
2022/06/06 09:51:31;;;;;;;;;5.50;4.00;;;;;22.39;49.38;101396.16;5060250;28;45496;-69
2022/06/06 10:00:43;;;;;;;;;1.00;1.00;;;;;22.29;47.03;101399.53;5061122;28;45541;-69
2022/06/06 10:03:37;;;;;;;;;1.00;1.00;;;;;22.16;45.88;101408.28;5061378;28;45319;-70
2022/06/06 10:06:30;;;;;;;;;0.00;0.00;;;;;22.19;48.33;101411.66;5061110;28;45362;-70
2022/06/06 10:09:33;;;;;;;;;0.25;0.25;;;;;22.31;47.25;101401.13;5052471;28;45407;-70
2022/06/06 10:12:26;;;;;;;;;0.50;0.50;;;;;22.40;47.31;101394.34;5081697;27;48434;-70
2022/06/06 10:15:42;;;;;;;;;1.00;1.00;;;;;22.40;48.31;101400.50;5060673;28;45585;-69
2022/06/06 10:18:31;;;;;;;;;3.00;2.00;;;;;22.49;46.65;101401.72;5050143;28;45365;-67
2022/06/06 10:21:09;;;;;;;;;0.00;0.00;;;;;22.55;45.45;101414.53;5049280;28;45443;-70
2022/06/06 10:23:46;;;;;;;;;2.00;0.00;;;;;22.61;47.44;101402.66;5060539;28;45522;-70
2022/06/06 10:26:27;;;;;;;;;0.00;0.00;;;;;22.84;45.44;101407.31;5060867;28;45269;-70
2022/06/06 10:29:16;;;;;;;;;0.00;0.00;;;;;23.03;43.01;101404.25;5061084;28;45342;-70
2022/06/06 10:31:55;;;;;;;;;0.50;0.50;;;;;23.16;44.79;101397.13;5052399;28;45250;-69
2022/06/06 10:35:04;;;;;;;;;1.00;1.00;;;;;23.38;44.16;101409.72;5057475;28;46222;-70
2022/06/06 10:37:44;;;;;;;;;0.25;0.25;;;;;23.57;44.23;101412.81;5093335;27;45389;-69
2022/06/06 10:40:38;;;;;;;;;2.00;0.50;;;;;23.75;42.87;101405.34;5060895;28;45217;-68
2022/06/06 10:43:35;;;;;;;;;3.00;2.00;;;;;23.68;43.63;101406.75;5051827;28;45982;-70
2022/06/06 10:46:15;;;;;;;;;7.50;7.00;;;;;23.42;40.08;101415.66;5060255;27;45406;-75
2022/06/06 10:49:08;;;;;;;;;10.00;10.00;;;;;23.31;42.06;101408.47;5060701;28;45701;-72
2022/06/06 10:52:04;;;;;;;;;3.25;3.25;;;;;23.29;41.71;101403.28;5060332;28;45353;-72
2022/06/06 10:54:45;;;;;;;;;2.00;2.00;;;;;23.35;43.45;101396.69;5053602;28;45344;-75
2022/06/06 10:57:29;;;;;;;;;1.75;1.75;;;;;23.38;42.94;101399.97;5059055;28;47191;-75
2022/06/06 11:00:11;;;;;;;;;2.00;2.00;;;;;23.18;43.09;101395.22;5057858;28;45299;-75
2022/06/06 11:03:04;;;;;;;;;1.50;1.50;;;;;23.26;43.11;101390.25;5059075;28;45390;-71
2022/06/06 11:05:57;;;;;;;;;2.00;1.00;;;;;23.37;44.88;101385.00;5058509;28;45303;-69
2022/06/06 11:08:32;;;;;;;;;0.75;0.75;;;;;23.56;44.01;101383.69;5058155;28;45399;-68
2022/06/06 11:11:27;;;;;;;;;6.75;3.00;;;;;23.50;42.26;101389.44;5058836;28;45669;-68
2022/06/06 11:14:17;;;;;;;;;3.00;1.00;;;;;23.34;42.80;101381.72;5054431;28;45678;-70
2022/06/06 11:17:28;;;;;;;;;2.00;1.00;;;;;23.23;44.47;101389.63;5058624;28;45469;-71
2022/06/06 11:20:12;;;;;;;;;1.00;1.00;;;;;23.10;41.20;101386.97;5059292;28;46509;-72
2022/06/06 11:23:00;;;;;;;;;0.75;0.75;;;;;22.94;42.30;101389.81;5058201;28;45486;-70
2022/06/06 11:25:26;;;;;;;;;2.00;2.00;;;;;22.85;42.48;101384.31;5060296;28;45402;-70
2022/06/06 11:28:24;;;;;;;;;3.00;1.25;;;;;22.92;43.76;101389.06;5060034;28;45429;-67
2022/06/06 11:30:55;;;;;;;;;1.75;1.00;;;;;22.96;43.26;101393.22;5058278;28;47922;-64
2022/06/06 11:33:58;;;;;;;;;1.00;1.00;;;;;22.99;43.72;101393.00;5060245;28;45404;-63
2022/06/06 11:36:45;;;;;;;;;1.75;1.75;;;;;23.11;44.04;101391.31;5051619;28;45449;-64
2022/06/06 11:39:31;;;;;;;;;1.00;1.00;;;;;23.18;42.33;101386.41;5059724;28;45616;-64
2022/06/06 11:42:05;;;;;;;;;3.00;0.00;;;;;23.24;43.05;101397.47;5063390;28;46638;-63
2022/06/06 11:44:42;;;;;;;;;1.00;1.00;;;;;23.29;42.32;101392.66;5058646;28;45389;-63
2022/06/06 11:47:48;;;;;;;;;1.50;1.00;;;;;23.45;43.42;101389.78;5055553;28;45310;-62
2022/06/06 11:50:29;;;;;;;;;1.00;1.00;;;;;23.51;41.83;101383.19;5057255;28;45359;-61
2022/06/06 11:53:10;;;;;;;;;0.50;0.50;;;;;23.64;39.95;101392.00;5067228;28;46249;-62
2022/06/06 11:55:51;;;;;;;;;0.50;0.00;;;;;23.72;38.08;101381.66;5066969;28;45329;-62
2022/06/06 11:58:34;;;;;;;;;1.00;1.00;;;;;23.78;38.33;101385.69;5066658;28;45308;-60
2022/06/06 12:01:15;;;;;;;;;1.00;1.00;;;;;23.98;41.93;101382.41;5098463;27;45959;-61
2022/06/06 12:04:02;;;;;;;;;0.75;0.75;;;;;24.29;42.22;101388.16;5063011;28;45528;-62
2022/06/06 12:06:52;;;;;;;;;2.75;1.00;;;;;24.31;40.60;101391.53;5063205;28;47347;-62
2022/06/06 12:09:35;;;;;;;;;1.00;1.00;;;;;24.31;41.64;101384.41;5072187;28;45510;-62
2022/06/06 12:12:45;;;;;;;;;2.00;1.00;;;;;24.31;38.10;101383.56;5052302;28;45552;-62
2022/06/06 12:15:29;;;;;;;;;2.00;1.00;;;;;24.28;41.39;101366.03;5057496;28;45648;-61
2022/06/06 12:18:05;;;;;;;;;0.00;0.00;;;;;24.26;39.03;101363.50;5054112;28;45594;-60
2022/06/06 12:20:54;;;;;;;;;0.00;0.00;;;;;24.33;40.82;101371.03;5063598;28;45521;-66
2022/06/06 12:23:36;;;;;;;;;0.00;0.00;;;;;24.49;40.06;101371.56;5058807;28;45763;-67
2022/06/06 12:26:04;;;;;;;;;1.75;1.75;;;;;24.60;40.40;101373.38;5056486;28;46089;-59
2022/06/06 12:29:09;;;;;;;;;2.00;2.00;;;;;24.71;40.52;101376.94;5065173;28;45541;-60
2022/06/06 12:31:47;;;;;;;;;2.00;1.00;;;;;24.81;37.84;101361.09;5054892;28;45439;-61
2022/06/06 12:34:20;;;;;;;;;2.00;0.00;;;;;24.78;40.42;101353.38;5059311;28;45319;-65
2022/06/06 12:37:01;;;;;;;;;3.00;1.00;;;;;24.88;39.68;101362.34;5049246;28;45474;-66
2022/06/06 12:39:58;;;;;;;;;0.00;0.00;;;;;24.90;37.21;101347.13;5058861;28;45719;-61